sensor_id;sensor_type;location;lat;lon;timestamp;temperature;humidity
9450;DHT22;4763;48.370;10.874;2024-02-23T00:00:10;9.00;99.90
9450;DHT22;4763;48.370;10.874;2024-02-23T00:02:39;8.90;99.90
9450;DHT22;4763;48.370;10.874;2024-02-23T00:05:06;8.80;99.90
9450;DHT22;4763;48.370;10.874;2024-02-23T00:07:33;8.80;99.90
9450;DHT22;4763;48.370;10.874;2024-02-23T00:10:00;8.70;99.90
9450;DHT22;4763;48.370;10.874;2024-02-23T00:12:27;8.70;99.90
9450;DHT22;4763;48.370;10.874;2024-02-23T00:14:54;8.60;99.90
9450;DHT22;4763;48.370;10.874;2024-02-23T00:17:21;8.50;99.90
9450;DHT22;4763;48.370;10.874;2024-02-23T00:19:54;8.40;99.90
9450;DHT22;4763;48.370;10.874;2024-02-23T00:22:21;8.30;99.90
9450;DHT22;4763;48.370;10.874;2024-02-23T00:24:49;8.30;99.90
9450;DHT22;4763;48.370;10.874;2024-02-23T00:27:16;8.30;99.90
9450;DHT22;4763;48.370;10.874;2024-02-23T00:29:43;8.30;99.90
9450;DHT22;4763;48.370;10.874;2024-02-23T00:32:10;8.20;99.90
9450;DHT22;4763;48.370;10.874;2024-02-23T00:34:40;8.20;99.90
9450;DHT22;4763;48.370;10.874;2024-02-23T00:37:09;8.20;99.90
9450;DHT22;4763;48.370;10.874;2024-02-23T00:39:35;8.10;99.90
9450;DHT22;4763;48.370;10.874;2024-02-23T00:42:03;8.10;99.90
9450;DHT22;4763;48.370;10.874;2024-02-23T00:44:30;8.10;99.90
9450;DHT22;4763;48.370;10.874;2024-02-23T00:46:58;8.10;99.90
9450;DHT22;4763;48.370;10.874;2024-02-23T00:49:28;8.00;99.90
9450;DHT22;4763;48.370;10.874;2024-02-23T00:51:59;8.00;99.90
9450;DHT22;4763;48.370;10.874;2024-02-23T00:54:28;8.00;99.90
9450;DHT22;4763;48.370;10.874;2024-02-23T00:56:55;8.00;99.90
9450;DHT22;4763;48.370;10.874;2024-02-23T00:59:22;8.00;99.90
9450;DHT22;4763;48.370;10.874;2024-02-23T01:01:50;7.90;99.90
9450;DHT22;4763;48.370;10.874;2024-02-23T01:04:17;7.90;99.90
9450;DHT22;4763;48.370;10.874;2024-02-23T01:06:47;7.90;99.90
9450;DHT22;4763;48.370;10.874;2024-02-23T01:09:17;7.90;99.90
9450;DHT22;4763;48.370;10.874;2024-02-23T01:11:50;7.90;99.90
9450;DHT22;4763;48.370;10.874;2024-02-23T01:14:17;7.80;99.90
9450;DHT22;4763;48.370;10.874;2024-02-23T01:16:45;7.80;99.90
9450;DHT22;4763;48.370;10.874;2024-02-23T01:19:11;7.80;99.90
9450;DHT22;4763;48.370;10.874;2024-02-23T01:21:41;7.80;99.90
9450;DHT22;4763;48.370;10.874;2024-02-23T01:24:10;7.70;99.90
9450;DHT22;4763;48.370;10.874;2024-02-23T01:26:36;7.70;99.90
9450;DHT22;4763;48.370;10.874;2024-02-23T01:29:04;7.70;99.90
9450;DHT22;4763;48.370;10.874;2024-02-23T01:31:34;7.70;99.90
9450;DHT22;4763;48.370;10.874;2024-02-23T01:34:01;7.70;99.90
9450;DHT22;4763;48.370;10.874;2024-02-23T01:36:27;7.60;99.90
9450;DHT22;4763;48.370;10.874;2024-02-23T01:38:57;7.60;99.90
9450;DHT22;4763;48.370;10.874;2024-02-23T01:41:23;7.50;99.90
9450;DHT22;4763;48.370;10.874;2024-02-23T01:43:56;7.50;99.90
9450;DHT22;4763;48.370;10.874;2024-02-23T01:46:24;7.60;99.90
9450;DHT22;4763;48.370;10.874;2024-02-23T01:48:51;7.50;99.90
9450;DHT22;4763;48.370;10.874;2024-02-23T01:51:21;7.50;99.90
9450;DHT22;4763;48.370;10.874;2024-02-23T01:53:48;7.50;99.90
9450;DHT22;4763;48.370;10.874;2024-02-23T01:56:15;7.50;99.90
9450;DHT22;4763;48.370;10.874;2024-02-23T01:58:43;7.50;99.90
9450;DHT22;4763;48.370;10.874;2024-02-23T02:01:12;7.40;99.90
9450;DHT22;4763;48.370;10.874;2024-02-23T02:03:40;7.50;99.90
9450;DHT22;4763;48.370;10.874;2024-02-23T02:06:09;7.50;99.90
9450;DHT22;4763;48.370;10.874;2024-02-23T02:08:36;7.40;99.90
9450;DHT22;4763;48.370;10.874;2024-02-23T02:11:03;7.40;99.90
9450;DHT22;4763;48.370;10.874;2024-02-23T02:13:30;7.20;99.90
9450;DHT22;4763;48.370;10.874;2024-02-23T02:15:58;7.00;99.90
9450;DHT22;4763;48.370;10.874;2024-02-23T02:18:26;6.60;99.90
9450;DHT22;4763;48.370;10.874;2024-02-23T02:20:56;6.30;99.90
9450;DHT22;4763;48.370;10.874;2024-02-23T02:23:24;6.00;99.90
9450;DHT22;4763;48.370;10.874;2024-02-23T02:25:55;5.70;99.90
9450;DHT22;4763;48.370;10.874;2024-02-23T02:28:31;5.60;99.90
9450;DHT22;4763;48.370;10.874;2024-02-23T02:30:58;5.50;99.90
9450;DHT22;4763;48.370;10.874;2024-02-23T02:33:25;5.50;99.90
9450;DHT22;4763;48.370;10.874;2024-02-23T02:35:55;5.50;99.90
9450;DHT22;4763;48.370;10.874;2024-02-23T02:38:24;5.60;99.90
9450;DHT22;4763;48.370;10.874;2024-02-23T02:40:51;5.50;99.90
9450;DHT22;4763;48.370;10.874;2024-02-23T02:43:18;5.40;99.90
9450;DHT22;4763;48.370;10.874;2024-02-23T02:45:44;5.40;99.90
9450;DHT22;4763;48.370;10.874;2024-02-23T02:48:11;5.40;99.90
9450;DHT22;4763;48.370;10.874;2024-02-23T02:50:38;5.40;99.90
9450;DHT22;4763;48.370;10.874;2024-02-23T02:53:06;5.30;99.90
9450;DHT22;4763;48.370;10.874;2024-02-23T02:55:33;5.40;99.90
9450;DHT22;4763;48.370;10.874;2024-02-23T02:58:00;5.40;99.90
9450;DHT22;4763;48.370;10.874;2024-02-23T03:00:27;5.30;99.90
9450;DHT22;4763;48.370;10.874;2024-02-23T03:02:59;5.30;99.90
9450;DHT22;4763;48.370;10.874;2024-02-23T03:05:27;5.30;99.90
9450;DHT22;4763;48.370;10.874;2024-02-23T03:07:54;5.20;99.90
9450;DHT22;4763;48.370;10.874;2024-02-23T03:10:22;5.30;99.90
9450;DHT22;4763;48.370;10.874;2024-02-23T03:12:49;5.30;99.90
9450;DHT22;4763;48.370;10.874;2024-02-23T03:15:16;5.30;99.90
9450;DHT22;4763;48.370;10.874;2024-02-23T03:17:43;5.30;99.90
9450;DHT22;4763;48.370;10.874;2024-02-23T03:20:11;5.30;99.90
9450;DHT22;4763;48.370;10.874;2024-02-23T03:22:38;5.20;99.90
9450;DHT22;4763;48.370;10.874;2024-02-23T03:25:05;5.20;99.90
9450;DHT22;4763;48.370;10.874;2024-02-23T03:27:37;5.30;99.90
9450;DHT22;4763;48.370;10.874;2024-02-23T03:30:05;5.30;99.90
9450;DHT22;4763;48.370;10.874;2024-02-23T03:32:33;5.20;99.90
9450;DHT22;4763;48.370;10.874;2024-02-23T03:35:03;5.20;99.90
9450;DHT22;4763;48.370;10.874;2024-02-23T03:37:30;5.20;99.90
9450;DHT22;4763;48.370;10.874;2024-02-23T03:39:56;5.20;99.90
9450;DHT22;4763;48.370;10.874;2024-02-23T03:42:23;5.20;99.90
9450;DHT22;4763;48.370;10.874;2024-02-23T03:44:53;5.20;99.90
9450;DHT22;4763;48.370;10.874;2024-02-23T03:47:19;5.10;99.90
9450;DHT22;4763;48.370;10.874;2024-02-23T03:49:46;5.20;99.90
9450;DHT22;4763;48.370;10.874;2024-02-23T03:52:14;5.20;99.90
9450;DHT22;4763;48.370;10.874;2024-02-23T03:54:41;5.20;99.90
9450;DHT22;4763;48.370;10.874;2024-02-23T03:57:08;5.20;99.90
9450;DHT22;4763;48.370;10.874;2024-02-23T03:59:36;5.20;99.90
9450;DHT22;4763;48.370;10.874;2024-02-23T04:02:04;5.20;99.90
9450;DHT22;4763;48.370;10.874;2024-02-23T04:04:31;5.20;99.90
9450;DHT22;4763;48.370;10.874;2024-02-23T04:06:58;5.20;99.90
9450;DHT22;4763;48.370;10.874;2024-02-23T04:09:24;5.10;99.90
9450;DHT22;4763;48.370;10.874;2024-02-23T04:11:51;5.10;99.90
9450;DHT22;4763;48.370;10.874;2024-02-23T04:14:19;5.20;99.90
9450;DHT22;4763;48.370;10.874;2024-02-23T04:16:46;5.20;99.90
9450;DHT22;4763;48.370;10.874;2024-02-23T04:19:14;5.10;99.90
9450;DHT22;4763;48.370;10.874;2024-02-23T04:21:41;5.10;99.90
9450;DHT22;4763;48.370;10.874;2024-02-23T04:24:08;5.10;99.90
9450;DHT22;4763;48.370;10.874;2024-02-23T04:26:37;5.10;99.90
9450;DHT22;4763;48.370;10.874;2024-02-23T04:29:07;5.20;99.90
9450;DHT22;4763;48.370;10.874;2024-02-23T04:31:36;5.20;99.90
9450;DHT22;4763;48.370;10.874;2024-02-23T04:34:03;5.10;99.90
9450;DHT22;4763;48.370;10.874;2024-02-23T04:36:31;5.20;99.90
9450;DHT22;4763;48.370;10.874;2024-02-23T04:38:58;5.20;99.90
9450;DHT22;4763;48.370;10.874;2024-02-23T04:41:24;5.20;99.90
9450;DHT22;4763;48.370;10.874;2024-02-23T04:43:51;5.30;99.90
9450;DHT22;4763;48.370;10.874;2024-02-23T04:46:24;5.20;99.90
9450;DHT22;4763;48.370;10.874;2024-02-23T04:48:50;5.20;99.90
9450;DHT22;4763;48.370;10.874;2024-02-23T04:51:17;5.20;99.90
9450;DHT22;4763;48.370;10.874;2024-02-23T04:53:47;5.20;99.90
9450;DHT22;4763;48.370;10.874;2024-02-23T04:56:14;5.20;99.90
9450;DHT22;4763;48.370;10.874;2024-02-23T04:58:43;5.20;99.90
9450;DHT22;4763;48.370;10.874;2024-02-23T05:01:09;5.20;99.90
9450;DHT22;4763;48.370;10.874;2024-02-23T05:03:37;5.20;99.90
9450;DHT22;4763;48.370;10.874;2024-02-23T05:06:04;5.20;99.90
9450;DHT22;4763;48.370;10.874;2024-02-23T05:08:31;5.20;99.90
9450;DHT22;4763;48.370;10.874;2024-02-23T05:11:02;5.20;99.90
9450;DHT22;4763;48.370;10.874;2024-02-23T05:13:29;5.20;99.90
9450;DHT22;4763;48.370;10.874;2024-02-23T05:15:56;5.20;99.90
9450;DHT22;4763;48.370;10.874;2024-02-23T05:18:23;5.20;99.90
9450;DHT22;4763;48.370;10.874;2024-02-23T05:20:50;5.20;99.90
9450;DHT22;4763;48.370;10.874;2024-02-23T05:23:19;5.30;99.90
9450;DHT22;4763;48.370;10.874;2024-02-23T05:25:44;5.30;99.90
9450;DHT22;4763;48.370;10.874;2024-02-23T05:28:13;5.20;99.90
9450;DHT22;4763;48.370;10.874;2024-02-23T05:30:41;5.20;99.90
9450;DHT22;4763;48.370;10.874;2024-02-23T05:33:08;5.20;99.90
9450;DHT22;4763;48.370;10.874;2024-02-23T05:35:34;5.20;99.90
9450;DHT22;4763;48.370;10.874;2024-02-23T05:38:01;5.20;99.90
9450;DHT22;4763;48.370;10.874;2024-02-23T05:40:28;5.20;99.90
9450;DHT22;4763;48.370;10.874;2024-02-23T05:42:56;5.20;99.90
9450;DHT22;4763;48.370;10.874;2024-02-23T05:45:24;5.20;99.90
9450;DHT22;4763;48.370;10.874;2024-02-23T05:47:51;5.20;99.90
9450;DHT22;4763;48.370;10.874;2024-02-23T05:50:17;5.10;99.90
9450;DHT22;4763;48.370;10.874;2024-02-23T05:52:44;5.10;99.90
9450;DHT22;4763;48.370;10.874;2024-02-23T05:55:11;5.20;99.90
9450;DHT22;4763;48.370;10.874;2024-02-23T05:57:38;5.10;99.90
9450;DHT22;4763;48.370;10.874;2024-02-23T06:00:06;5.20;99.90
9450;DHT22;4763;48.370;10.874;2024-02-23T06:02:35;5.20;99.90
9450;DHT22;4763;48.370;10.874;2024-02-23T06:05:02;5.20;99.90
9450;DHT22;4763;48.370;10.874;2024-02-23T06:07:29;5.20;99.90
9450;DHT22;4763;48.370;10.874;2024-02-23T06:09:56;5.20;99.90
9450;DHT22;4763;48.370;10.874;2024-02-23T06:12:23;5.30;99.90
9450;DHT22;4763;48.370;10.874;2024-02-23T06:14:51;5.20;99.90
9450;DHT22;4763;48.370;10.874;2024-02-23T06:17:18;5.20;99.90
9450;DHT22;4763;48.370;10.874;2024-02-23T06:19:46;5.20;99.90
9450;DHT22;4763;48.370;10.874;2024-02-23T06:22:12;5.20;99.90
9450;DHT22;4763;48.370;10.874;2024-02-23T06:24:42;5.20;99.90
9450;DHT22;4763;48.370;10.874;2024-02-23T06:27:09;5.10;99.90
9450;DHT22;4763;48.370;10.874;2024-02-23T06:29:35;5.20;99.90
9450;DHT22;4763;48.370;10.874;2024-02-23T06:32:03;5.10;99.90
9450;DHT22;4763;48.370;10.874;2024-02-23T06:34:30;5.10;99.90
9450;DHT22;4763;48.370;10.874;2024-02-23T06:36:58;5.20;99.90
9450;DHT22;4763;48.370;10.874;2024-02-23T06:39:25;5.20;99.90
9450;DHT22;4763;48.370;10.874;2024-02-23T06:41:52;5.20;99.90
9450;DHT22;4763;48.370;10.874;2024-02-23T06:44:19;5.20;99.90
9450;DHT22;4763;48.370;10.874;2024-02-23T06:46:46;5.20;99.90
9450;DHT22;4763;48.370;10.874;2024-02-23T06:49:12;5.30;99.90
9450;DHT22;4763;48.370;10.874;2024-02-23T06:51:39;5.20;99.90
9450;DHT22;4763;48.370;10.874;2024-02-23T06:54:09;5.30;99.90
9450;DHT22;4763;48.370;10.874;2024-02-23T06:56:36;5.30;99.90
9450;DHT22;4763;48.370;10.874;2024-02-23T06:59:03;5.40;99.90
9450;DHT22;4763;48.370;10.874;2024-02-23T07:01:29;5.30;99.90
9450;DHT22;4763;48.370;10.874;2024-02-23T07:03:56;5.40;99.90
9450;DHT22;4763;48.370;10.874;2024-02-23T07:06:24;5.30;99.90
9450;DHT22;4763;48.370;10.874;2024-02-23T07:08:50;5.30;99.90
9450;DHT22;4763;48.370;10.874;2024-02-23T07:11:18;5.30;99.90
9450;DHT22;4763;48.370;10.874;2024-02-23T07:13:45;5.30;99.90
9450;DHT22;4763;48.370;10.874;2024-02-23T07:16:12;5.30;99.90
9450;DHT22;4763;48.370;10.874;2024-02-23T07:18:40;5.30;99.90
9450;DHT22;4763;48.370;10.874;2024-02-23T07:21:07;5.30;99.90
9450;DHT22;4763;48.370;10.874;2024-02-23T07:23:34;5.30;99.90
9450;DHT22;4763;48.370;10.874;2024-02-23T07:26:00;5.30;99.90
9450;DHT22;4763;48.370;10.874;2024-02-23T07:28:28;5.20;99.90
9450;DHT22;4763;48.370;10.874;2024-02-23T07:30:55;5.30;99.90
9450;DHT22;4763;48.370;10.874;2024-02-23T07:33:22;5.30;99.90
9450;DHT22;4763;48.370;10.874;2024-02-23T07:35:49;5.30;99.90
9450;DHT22;4763;48.370;10.874;2024-02-23T07:38:16;5.30;99.90
9450;DHT22;4763;48.370;10.874;2024-02-23T07:40:45;5.30;99.90
9450;DHT22;4763;48.370;10.874;2024-02-23T07:43:12;5.30;99.90
9450;DHT22;4763;48.370;10.874;2024-02-23T07:45:41;5.30;99.90
9450;DHT22;4763;48.370;10.874;2024-02-23T07:48:08;5.40;99.90
9450;DHT22;4763;48.370;10.874;2024-02-23T07:50:35;5.30;99.90
9450;DHT22;4763;48.370;10.874;2024-02-23T07:53:02;5.30;99.90
9450;DHT22;4763;48.370;10.874;2024-02-23T07:55:29;5.30;99.90
9450;DHT22;4763;48.370;10.874;2024-02-23T07:57:56;5.40;99.90
9450;DHT22;4763;48.370;10.874;2024-02-23T08:00:26;5.40;99.90
9450;DHT22;4763;48.370;10.874;2024-02-23T08:02:55;5.40;99.90
9450;DHT22;4763;48.370;10.874;2024-02-23T08:05:24;5.40;99.90
9450;DHT22;4763;48.370;10.874;2024-02-23T08:07:51;5.30;99.90
9450;DHT22;4763;48.370;10.874;2024-02-23T08:10:18;5.30;99.90
9450;DHT22;4763;48.370;10.874;2024-02-23T08:12:46;5.40;99.90
9450;DHT22;4763;48.370;10.874;2024-02-23T08:15:13;5.50;99.90
9450;DHT22;4763;48.370;10.874;2024-02-23T08:17:40;5.50;99.90
9450;DHT22;4763;48.370;10.874;2024-02-23T08:20:09;5.50;99.90
9450;DHT22;4763;48.370;10.874;2024-02-23T08:22:36;5.50;99.90
9450;DHT22;4763;48.370;10.874;2024-02-23T08:25:06;5.50;99.90
9450;DHT22;4763;48.370;10.874;2024-02-23T08:27:33;5.60;99.90
9450;DHT22;4763;48.370;10.874;2024-02-23T08:30:00;5.60;99.90
9450;DHT22;4763;48.370;10.874;2024-02-23T08:32:27;5.60;99.90
9450;DHT22;4763;48.370;10.874;2024-02-23T08:34:53;5.50;99.90
9450;DHT22;4763;48.370;10.874;2024-02-23T08:37:26;5.60;99.90
9450;DHT22;4763;48.370;10.874;2024-02-23T08:39:53;5.50;99.90
9450;DHT22;4763;48.370;10.874;2024-02-23T08:42:20;5.50;99.90
9450;DHT22;4763;48.370;10.874;2024-02-23T08:44:46;5.50;99.90
9450;DHT22;4763;48.370;10.874;2024-02-23T08:47:13;5.60;99.90
9450;DHT22;4763;48.370;10.874;2024-02-23T08:49:40;5.60;99.90
9450;DHT22;4763;48.370;10.874;2024-02-23T08:52:07;5.70;99.90
9450;DHT22;4763;48.370;10.874;2024-02-23T08:54:35;5.60;99.90
9450;DHT22;4763;48.370;10.874;2024-02-23T08:57:03;5.70;99.90
9450;DHT22;4763;48.370;10.874;2024-02-23T08:59:30;5.70;99.90
9450;DHT22;4763;48.370;10.874;2024-02-23T09:01:57;5.70;99.90
9450;DHT22;4763;48.370;10.874;2024-02-23T09:04:24;5.70;99.90
9450;DHT22;4763;48.370;10.874;2024-02-23T09:06:50;5.80;99.90
9450;DHT22;4763;48.370;10.874;2024-02-23T09:09:18;5.80;99.90
9450;DHT22;4763;48.370;10.874;2024-02-23T09:11:47;5.80;99.90
9450;DHT22;4763;48.370;10.874;2024-02-23T09:14:15;5.80;99.90
9450;DHT22;4763;48.370;10.874;2024-02-23T09:16:45;5.70;99.90
9450;DHT22;4763;48.370;10.874;2024-02-23T09:19:13;5.70;99.90
9450;DHT22;4763;48.370;10.874;2024-02-23T09:21:39;5.80;99.90
9450;DHT22;4763;48.370;10.874;2024-02-23T09:24:06;5.80;99.90
9450;DHT22;4763;48.370;10.874;2024-02-23T09:26:33;5.80;99.90
9450;DHT22;4763;48.370;10.874;2024-02-23T09:29:01;5.80;99.90
9450;DHT22;4763;48.370;10.874;2024-02-23T09:31:28;5.80;99.90
9450;DHT22;4763;48.370;10.874;2024-02-23T09:33:57;5.80;99.90
9450;DHT22;4763;48.370;10.874;2024-02-23T09:36:24;5.90;99.90
9450;DHT22;4763;48.370;10.874;2024-02-23T09:38:51;5.90;99.90
9450;DHT22;4763;48.370;10.874;2024-02-23T09:41:20;5.90;99.90
9450;DHT22;4763;48.370;10.874;2024-02-23T09:43:47;5.80;99.90
9450;DHT22;4763;48.370;10.874;2024-02-23T09:46:16;5.90;99.90
9450;DHT22;4763;48.370;10.874;2024-02-23T09:48:49;5.90;99.90
9450;DHT22;4763;48.370;10.874;2024-02-23T09:51:18;5.90;99.90
9450;DHT22;4763;48.370;10.874;2024-02-23T09:53:49;5.80;99.90
9450;DHT22;4763;48.370;10.874;2024-02-23T09:56:17;5.90;99.90
9450;DHT22;4763;48.370;10.874;2024-02-23T09:58:46;6.00;99.90
9450;DHT22;4763;48.370;10.874;2024-02-23T10:01:19;5.90;99.90
9450;DHT22;4763;48.370;10.874;2024-02-23T10:03:48;6.00;99.90
9450;DHT22;4763;48.370;10.874;2024-02-23T10:06:14;5.90;99.90
9450;DHT22;4763;48.370;10.874;2024-02-23T10:08:43;6.00;99.90
9450;DHT22;4763;48.370;10.874;2024-02-23T10:11:10;6.00;99.90
9450;DHT22;4763;48.370;10.874;2024-02-23T10:13:37;6.00;99.90
9450;DHT22;4763;48.370;10.874;2024-02-23T10:16:05;6.00;99.90
9450;DHT22;4763;48.370;10.874;2024-02-23T10:18:33;6.00;99.90
9450;DHT22;4763;48.370;10.874;2024-02-23T10:21:00;6.10;99.90
9450;DHT22;4763;48.370;10.874;2024-02-23T10:23:27;6.00;99.90
9450;DHT22;4763;48.370;10.874;2024-02-23T10:25:55;6.00;99.90
9450;DHT22;4763;48.370;10.874;2024-02-23T10:28:22;6.10;99.90
9450;DHT22;4763;48.370;10.874;2024-02-23T10:30:49;6.10;99.90
9450;DHT22;4763;48.370;10.874;2024-02-23T10:33:18;6.20;99.90
9450;DHT22;4763;48.370;10.874;2024-02-23T10:35:51;6.20;99.90
9450;DHT22;4763;48.370;10.874;2024-02-23T10:38:20;6.20;99.90
9450;DHT22;4763;48.370;10.874;2024-02-23T10:40:49;6.20;99.90
9450;DHT22;4763;48.370;10.874;2024-02-23T10:43:19;6.30;99.90
9450;DHT22;4763;48.370;10.874;2024-02-23T10:45:46;6.20;99.90
9450;DHT22;4763;48.370;10.874;2024-02-23T10:48:15;6.20;99.90
9450;DHT22;4763;48.370;10.874;2024-02-23T10:50:42;6.30;99.90
9450;DHT22;4763;48.370;10.874;2024-02-23T10:53:11;6.30;99.90
9450;DHT22;4763;48.370;10.874;2024-02-23T10:55:40;6.20;99.90
9450;DHT22;4763;48.370;10.874;2024-02-23T10:58:09;6.20;99.90
9450;DHT22;4763;48.370;10.874;2024-02-23T11:00:39;6.20;99.90
9450;DHT22;4763;48.370;10.874;2024-02-23T11:03:08;6.20;99.90
9450;DHT22;4763;48.370;10.874;2024-02-23T11:05:35;6.20;99.90
9450;DHT22;4763;48.370;10.874;2024-02-23T11:08:06;6.20;99.90
9450;DHT22;4763;48.370;10.874;2024-02-23T11:10:42;6.20;99.90
9450;DHT22;4763;48.370;10.874;2024-02-23T11:13:09;6.30;99.90
9450;DHT22;4763;48.370;10.874;2024-02-23T11:15:41;6.30;99.90
9450;DHT22;4763;48.370;10.874;2024-02-23T11:18:21;6.40;99.90
9450;DHT22;4763;48.370;10.874;2024-02-23T11:20:54;6.30;99.90
9450;DHT22;4763;48.370;10.874;2024-02-23T11:23:21;6.40;99.90
9450;DHT22;4763;48.370;10.874;2024-02-23T11:26:04;6.40;99.90
9450;DHT22;4763;48.370;10.874;2024-02-23T11:28:32;6.30;99.90
9450;DHT22;4763;48.370;10.874;2024-02-23T11:30:59;6.20;99.90
9450;DHT22;4763;48.370;10.874;2024-02-23T11:33:28;6.20;99.90
9450;DHT22;4763;48.370;10.874;2024-02-23T11:36:05;6.20;99.90
9450;DHT22;4763;48.370;10.874;2024-02-23T11:38:32;6.30;99.90
9450;DHT22;4763;48.370;10.874;2024-02-23T11:41:00;6.30;99.90
9450;DHT22;4763;48.370;10.874;2024-02-23T11:43:26;6.40;99.90
9450;DHT22;4763;48.370;10.874;2024-02-23T11:45:54;6.40;99.90
9450;DHT22;4763;48.370;10.874;2024-02-23T11:48:22;6.40;99.90
9450;DHT22;4763;48.370;10.874;2024-02-23T11:50:49;6.40;99.90
9450;DHT22;4763;48.370;10.874;2024-02-23T11:53:16;6.40;99.90
9450;DHT22;4763;48.370;10.874;2024-02-23T11:55:46;6.40;99.90
9450;DHT22;4763;48.370;10.874;2024-02-23T11:58:15;6.50;99.90
9450;DHT22;4763;48.370;10.874;2024-02-23T12:00:42;6.60;99.90
9450;DHT22;4763;48.370;10.874;2024-02-23T12:03:09;6.60;99.90
9450;DHT22;4763;48.370;10.874;2024-02-23T12:05:36;6.60;99.90
9450;DHT22;4763;48.370;10.874;2024-02-23T12:08:03;6.60;99.90
9450;DHT22;4763;48.370;10.874;2024-02-23T12:10:31;6.60;99.90
9450;DHT22;4763;48.370;10.874;2024-02-23T12:12:58;6.70;99.90
9450;DHT22;4763;48.370;10.874;2024-02-23T12:15:27;6.70;99.90
9450;DHT22;4763;48.370;10.874;2024-02-23T12:17:58;6.60;99.90
9450;DHT22;4763;48.370;10.874;2024-02-23T12:20:25;6.70;99.90
9450;DHT22;4763;48.370;10.874;2024-02-23T12:22:54;6.70;99.90
9450;DHT22;4763;48.370;10.874;2024-02-23T12:25:22;6.60;99.90
9450;DHT22;4763;48.370;10.874;2024-02-23T12:27:54;6.70;99.90
9450;DHT22;4763;48.370;10.874;2024-02-23T12:30:22;6.70;99.90
9450;DHT22;4763;48.370;10.874;2024-02-23T12:33:03;6.70;99.90
9450;DHT22;4763;48.370;10.874;2024-02-23T12:35:30;6.70;99.90
9450;DHT22;4763;48.370;10.874;2024-02-23T12:37:57;6.70;99.90
9450;DHT22;4763;48.370;10.874;2024-02-23T12:40:29;6.70;99.90
9450;DHT22;4763;48.370;10.874;2024-02-23T12:42:57;6.70;99.90
9450;DHT22;4763;48.370;10.874;2024-02-23T12:45:30;6.70;99.90
9450;DHT22;4763;48.370;10.874;2024-02-23T12:47:59;6.70;99.90
9450;DHT22;4763;48.370;10.874;2024-02-23T12:50:31;6.80;99.90
9450;DHT22;4763;48.370;10.874;2024-02-23T12:53:39;6.80;99.90
9450;DHT22;4763;48.370;10.874;2024-02-23T12:56:30;6.90;99.90
9450;DHT22;4763;48.370;10.874;2024-02-23T12:59:07;6.80;99.90
9450;DHT22;4763;48.370;10.874;2024-02-23T13:01:41;7.00;99.90
9450;DHT22;4763;48.370;10.874;2024-02-23T13:04:14;6.90;99.90
9450;DHT22;4763;48.370;10.874;2024-02-23T13:06:44;7.00;99.90
9450;DHT22;4763;48.370;10.874;2024-02-23T13:12:21;6.90;99.90
9450;DHT22;4763;48.370;10.874;2024-02-23T13:14:54;7.00;99.90
9450;DHT22;4763;48.370;10.874;2024-02-23T13:17:35;7.00;99.90
9450;DHT22;4763;48.370;10.874;2024-02-23T13:20:14;7.00;99.90
9450;DHT22;4763;48.370;10.874;2024-02-23T13:22:41;7.10;99.90
9450;DHT22;4763;48.370;10.874;2024-02-23T13:25:08;7.10;99.90
9450;DHT22;4763;48.370;10.874;2024-02-23T13:27:39;7.20;99.90
9450;DHT22;4763;48.370;10.874;2024-02-23T13:30:07;7.10;99.90
9450;DHT22;4763;48.370;10.874;2024-02-23T13:32:34;7.10;99.90
9450;DHT22;4763;48.370;10.874;2024-02-23T13:35:01;7.00;99.90
9450;DHT22;4763;48.370;10.874;2024-02-23T13:37:31;7.00;99.90
9450;DHT22;4763;48.370;10.874;2024-02-23T13:39:58;7.00;99.90
9450;DHT22;4763;48.370;10.874;2024-02-23T13:42:24;6.90;99.90
9450;DHT22;4763;48.370;10.874;2024-02-23T13:44:53;7.00;99.90
9450;DHT22;4763;48.370;10.874;2024-02-23T13:47:26;7.00;99.90
9450;DHT22;4763;48.370;10.874;2024-02-23T13:49:53;7.10;99.90
9450;DHT22;4763;48.370;10.874;2024-02-23T13:52:20;7.10;99.90
9450;DHT22;4763;48.370;10.874;2024-02-23T13:54:48;7.10;99.90
9450;DHT22;4763;48.370;10.874;2024-02-23T13:57:15;7.00;99.90
9450;DHT22;4763;48.370;10.874;2024-02-23T13:59:48;7.10;99.90
9450;DHT22;4763;48.370;10.874;2024-02-23T14:02:16;7.10;99.90
9450;DHT22;4763;48.370;10.874;2024-02-23T14:04:46;7.00;99.90
9450;DHT22;4763;48.370;10.874;2024-02-23T14:07:13;7.00;99.90
9450;DHT22;4763;48.370;10.874;2024-02-23T14:09:39;7.00;99.90
9450;DHT22;4763;48.370;10.874;2024-02-23T14:12:08;7.10;99.90
9450;DHT22;4763;48.370;10.874;2024-02-23T14:14:35;7.00;99.90
9450;DHT22;4763;48.370;10.874;2024-02-23T14:17:01;7.00;99.90
9450;DHT22;4763;48.370;10.874;2024-02-23T14:19:29;6.90;99.90
9450;DHT22;4763;48.370;10.874;2024-02-23T14:21:56;6.90;99.90
9450;DHT22;4763;48.370;10.874;2024-02-23T14:24:23;6.80;99.90
9450;DHT22;4763;48.370;10.874;2024-02-23T14:26:50;6.80;99.90
9450;DHT22;4763;48.370;10.874;2024-02-23T14:29:18;6.80;99.90
9450;DHT22;4763;48.370;10.874;2024-02-23T14:31:44;6.80;99.90
9450;DHT22;4763;48.370;10.874;2024-02-23T14:34:11;6.80;99.90
9450;DHT22;4763;48.370;10.874;2024-02-23T14:36:38;6.70;99.90
9450;DHT22;4763;48.370;10.874;2024-02-23T14:39:05;6.70;99.90
9450;DHT22;4763;48.370;10.874;2024-02-23T14:41:33;6.70;99.90
9450;DHT22;4763;48.370;10.874;2024-02-23T14:44:00;6.70;99.90
9450;DHT22;4763;48.370;10.874;2024-02-23T14:46:29;6.60;99.90
9450;DHT22;4763;48.370;10.874;2024-02-23T14:48:58;6.70;99.90
9450;DHT22;4763;48.370;10.874;2024-02-23T14:51:24;6.60;99.90
9450;DHT22;4763;48.370;10.874;2024-02-23T14:53:51;6.60;99.90
9450;DHT22;4763;48.370;10.874;2024-02-23T14:56:18;6.60;99.90
9450;DHT22;4763;48.370;10.874;2024-02-23T14:58:45;6.50;99.90
9450;DHT22;4763;48.370;10.874;2024-02-23T15:01:12;6.50;99.90
9450;DHT22;4763;48.370;10.874;2024-02-23T15:03:39;6.50;99.90
9450;DHT22;4763;48.370;10.874;2024-02-23T15:06:08;6.50;99.90
9450;DHT22;4763;48.370;10.874;2024-02-23T15:08:36;6.50;99.90
9450;DHT22;4763;48.370;10.874;2024-02-23T15:11:03;6.50;99.90
9450;DHT22;4763;48.370;10.874;2024-02-23T15:17:12;6.50;99.90
9450;DHT22;4763;48.370;10.874;2024-02-23T15:19:53;6.50;99.90
9450;DHT22;4763;48.370;10.874;2024-02-23T15:22:20;6.40;99.90
9450;DHT22;4763;48.370;10.874;2024-02-23T15:24:47;6.40;99.90
9450;DHT22;4763;48.370;10.874;2024-02-23T15:27:15;6.40;99.90
9450;DHT22;4763;48.370;10.874;2024-02-23T15:29:41;6.40;99.90
9450;DHT22;4763;48.370;10.874;2024-02-23T15:32:11;6.30;99.90
9450;DHT22;4763;48.370;10.874;2024-02-23T15:34:40;6.30;99.90
9450;DHT22;4763;48.370;10.874;2024-02-23T15:37:19;6.30;99.90
9450;DHT22;4763;48.370;10.874;2024-02-23T15:39:54;6.30;99.90
9450;DHT22;4763;48.370;10.874;2024-02-23T15:42:21;6.30;99.90
9450;DHT22;4763;48.370;10.874;2024-02-23T15:44:49;6.20;99.90
9450;DHT22;4763;48.370;10.874;2024-02-23T15:47:16;6.20;99.90
9450;DHT22;4763;48.370;10.874;2024-02-23T15:49:42;6.20;99.90
9450;DHT22;4763;48.370;10.874;2024-02-23T15:52:09;6.20;99.90
9450;DHT22;4763;48.370;10.874;2024-02-23T15:54:37;6.10;99.90
9450;DHT22;4763;48.370;10.874;2024-02-23T15:57:07;6.10;99.90
9450;DHT22;4763;48.370;10.874;2024-02-23T15:59:34;6.00;99.90
9450;DHT22;4763;48.370;10.874;2024-02-23T16:02:01;5.90;99.90
9450;DHT22;4763;48.370;10.874;2024-02-23T16:04:28;5.90;99.90
9450;DHT22;4763;48.370;10.874;2024-02-23T16:06:56;5.90;99.90
9450;DHT22;4763;48.370;10.874;2024-02-23T16:09:23;5.80;99.90
9450;DHT22;4763;48.370;10.874;2024-02-23T16:11:51;5.80;99.90
9450;DHT22;4763;48.370;10.874;2024-02-23T16:14:18;5.80;99.90